sensor_id;sensor_type;location;lat;lon;timestamp;pressure;altitude;pressure_sealevel;temperature;humidity
20079;BME280;10199;48.850;8.924;2024-02-23T00:01:14;95229.88;;;4.71;87.01
20079;BME280;10199;48.850;8.924;2024-02-23T00:04:04;95260.03;;;4.94;86.64
20079;BME280;10199;48.850;8.924;2024-02-23T00:06:54;95045.50;;;3.57;85.83
20079;BME280;10199;48.850;8.924;2024-02-23T00:09:42;95273.75;;;4.89;86.14
20079;BME280;10199;48.850;8.924;2024-02-23T00:12:30;94983.00;;;3.15;85.24
20079;BME280;10199;48.850;8.924;2024-02-23T00:15:18;95255.44;;;4.89;84.19
20079;BME280;10199;48.850;8.924;2024-02-23T00:18:07;95241.34;;;4.77;83.50
20079;BME280;10199;48.850;8.924;2024-02-23T00:20:56;95264.28;;;4.95;82.16
20079;BME280;10199;48.850;8.924;2024-02-23T00:23:44;95275.34;;;4.97;81.50
20079;BME280;10199;48.850;8.924;2024-02-23T00:26:33;95274.97;;;4.93;80.68
20079;BME280;10199;48.850;8.924;2024-02-23T00:29:21;95280.38;;;4.98;80.51
20079;BME280;10199;48.850;8.924;2024-02-23T00:32:09;95304.38;;;4.95;80.46
20079;BME280;10199;48.850;8.924;2024-02-23T00:34:57;95311.63;;;4.87;81.16
20079;BME280;10199;48.850;8.924;2024-02-23T00:37:47;95116.00;;;3.30;81.08
20079;BME280;10199;48.850;8.924;2024-02-23T00:40:35;95318.28;;;4.89;80.96
20079;BME280;10199;48.850;8.924;2024-02-23T00:43:23;95318.91;;;4.85;81.65
20079;BME280;10199;48.850;8.924;2024-02-23T00:46:11;95205.56;;;4.05;82.85
20079;BME280;10199;48.850;8.924;2024-02-23T00:49:02;95325.16;;;4.77;82.50
20079;BME280;10199;48.850;8.924;2024-02-23T00:51:50;95319.31;;;4.75;82.73
20079;BME280;10199;48.850;8.924;2024-02-23T00:54:40;95329.38;;;4.78;82.56
20079;BME280;10199;48.850;8.924;2024-02-23T00:57:28;95328.16;;;4.87;80.75
20079;BME280;10199;48.850;8.924;2024-02-23T01:00:17;95324.56;;;4.68;80.80
20079;BME280;10199;48.850;8.924;2024-02-23T01:03:05;95306.03;;;4.57;82.33
20079;BME280;10199;48.850;8.924;2024-02-23T01:05:54;95332.00;;;4.85;82.04
20079;BME280;10199;48.850;8.924;2024-02-23T01:08:42;95154.06;;;3.59;81.69
20079;BME280;10199;48.850;8.924;2024-02-23T01:11:31;95346.69;;;4.86;81.62
20079;BME280;10199;48.850;8.924;2024-02-23T01:14:19;95342.25;;;4.86;81.12
20079;BME280;10199;48.850;8.924;2024-02-23T01:17:08;95333.41;;;4.80;82.12
20079;BME280;10199;48.850;8.924;2024-02-23T01:19:56;95291.31;;;4.69;81.64
20079;BME280;10199;48.850;8.924;2024-02-23T01:22:44;95326.97;;;4.76;81.00
20079;BME280;10199;48.850;8.924;2024-02-23T01:25:33;95340.06;;;4.83;81.76
20079;BME280;10199;48.850;8.924;2024-02-23T01:28:23;95296.38;;;4.51;81.97
20079;BME280;10199;48.850;8.924;2024-02-23T01:31:11;95291.13;;;4.44;83.65
20079;BME280;10199;48.850;8.924;2024-02-23T01:34:00;95340.88;;;4.70;83.90
20079;BME280;10199;48.850;8.924;2024-02-23T01:36:48;95364.22;;;4.72;82.76
20079;BME280;10199;48.850;8.924;2024-02-23T01:39:36;95363.22;;;4.73;84.28
20079;BME280;10199;48.850;8.924;2024-02-23T01:42:25;95361.22;;;4.62;84.36
20079;BME280;10199;48.850;8.924;2024-02-23T01:45:15;95377.72;;;4.62;84.83
20079;BME280;10199;48.850;8.924;2024-02-23T01:48:03;95240.81;;;3.35;86.36
20079;BME280;10199;48.850;8.924;2024-02-23T01:50:53;95118.53;;;2.84;86.37
20079;BME280;10199;48.850;8.924;2024-02-23T01:53:41;95298.88;;;3.84;87.81
20079;BME280;10199;48.850;8.924;2024-02-23T01:56:32;95372.63;;;4.28;88.27
20079;BME280;10199;48.850;8.924;2024-02-23T01:59:21;95387.34;;;4.35;89.57
20079;BME280;10199;48.850;8.924;2024-02-23T02:02:11;95406.84;;;4.26;90.23
20079;BME280;10199;48.850;8.924;2024-02-23T02:04:59;95350.63;;;3.96;90.63
20079;BME280;10199;48.850;8.924;2024-02-23T02:07:49;95394.94;;;4.17;91.33
20079;BME280;10199;48.850;8.924;2024-02-23T02:10:40;95382.13;;;3.74;91.08
20079;BME280;10199;48.850;8.924;2024-02-23T02:13:29;95396.34;;;4.13;91.52
20079;BME280;10199;48.850;8.924;2024-02-23T02:16:18;95396.50;;;4.05;92.25
20079;BME280;10199;48.850;8.924;2024-02-23T02:19:07;95371.88;;;3.79;92.03
20079;BME280;10199;48.850;8.924;2024-02-23T02:21:56;95373.50;;;3.80;92.91
20079;BME280;10199;48.850;8.924;2024-02-23T02:24:44;95400.09;;;3.97;92.69
20079;BME280;10199;48.850;8.924;2024-02-23T02:27:35;95402.91;;;3.96;92.85
20079;BME280;10199;48.850;8.924;2024-02-23T02:30:23;95398.50;;;3.96;92.81
20079;BME280;10199;48.850;8.924;2024-02-23T02:33:11;95398.09;;;3.93;92.57
20079;BME280;10199;48.850;8.924;2024-02-23T02:36:00;95390.47;;;3.98;92.69
20079;BME280;10199;48.850;8.924;2024-02-23T02:38:49;95394.47;;;3.94;91.26
20079;BME280;10199;48.850;8.924;2024-02-23T02:41:37;95396.47;;;3.92;91.28
20079;BME280;10199;48.850;8.924;2024-02-23T02:44:25;95150.66;;;2.43;90.48
20079;BME280;10199;48.850;8.924;2024-02-23T02:47:17;95339.00;;;3.50;88.34
20079;BME280;10199;48.850;8.924;2024-02-23T02:50:08;95376.59;;;4.04;87.81
20079;BME280;10199;48.850;8.924;2024-02-23T02:52:58;95381.59;;;3.99;87.41
20079;BME280;10199;48.850;8.924;2024-02-23T02:55:46;95373.97;;;4.04;86.69
20079;BME280;10199;48.850;8.924;2024-02-23T02:58:35;95378.00;;;4.06;86.14
20079;BME280;10199;48.850;8.924;2024-02-23T03:01:23;95388.47;;;4.06;85.67
20079;BME280;10199;48.850;8.924;2024-02-23T03:04:11;95350.59;;;3.89;85.68
20079;BME280;10199;48.850;8.924;2024-02-23T03:06:59;95402.75;;;4.04;85.50
20079;BME280;10199;48.850;8.924;2024-02-23T03:09:49;95353.41;;;3.88;84.01
20079;BME280;10199;48.850;8.924;2024-02-23T03:12:37;95366.53;;;4.01;82.69
20079;BME280;10199;48.850;8.924;2024-02-23T03:15:29;95385.66;;;4.08;82.45
20079;BME280;10199;48.850;8.924;2024-02-23T03:18:18;95393.28;;;4.03;83.27
20079;BME280;10199;48.850;8.924;2024-02-23T03:21:06;95357.03;;;3.93;81.86
20079;BME280;10199;48.850;8.924;2024-02-23T03:23:56;95367.53;;;4.00;81.75
20079;BME280;10199;48.850;8.924;2024-02-23T03:26:45;95375.97;;;4.02;81.76
20079;BME280;10199;48.850;8.924;2024-02-23T03:29:34;95372.94;;;3.98;81.31
20079;BME280;10199;48.850;8.924;2024-02-23T03:32:22;95384.41;;;3.91;81.58
20079;BME280;10199;48.850;8.924;2024-02-23T03:35:10;95378.94;;;3.86;81.37
20079;BME280;10199;48.850;8.924;2024-02-23T03:37:58;95350.34;;;3.77;80.50
20079;BME280;10199;48.850;8.924;2024-02-23T03:40:47;95372.09;;;3.84;80.49
20079;BME280;10199;48.850;8.924;2024-02-23T03:43:36;95371.88;;;3.79;80.92
20079;BME280;10199;48.850;8.924;2024-02-23T03:46:31;95386.13;;;3.70;81.72
20079;BME280;10199;48.850;8.924;2024-02-23T03:49:19;95371.44;;;3.69;81.54
20079;BME280;10199;48.850;8.924;2024-02-23T03:52:07;95352.09;;;3.57;80.35
20079;BME280;10199;48.850;8.924;2024-02-23T03:54:55;95382.50;;;3.65;81.11
20079;BME280;10199;48.850;8.924;2024-02-23T03:57:44;95385.88;;;3.59;81.31
20079;BME280;10199;48.850;8.924;2024-02-23T04:00:34;95400.78;;;3.65;80.56
20079;BME280;10199;48.850;8.924;2024-02-23T04:03:23;95414.00;;;3.57;80.83
20079;BME280;10199;48.850;8.924;2024-02-23T04:06:11;95370.97;;;3.53;78.53
20079;BME280;10199;48.850;8.924;2024-02-23T04:08:59;95416.66;;;3.63;78.73
20079;BME280;10199;48.850;8.924;2024-02-23T04:11:48;95378.81;;;3.53;79.57
20079;BME280;10199;48.850;8.924;2024-02-23T04:14:36;95370.19;;;3.59;78.06
20079;BME280;10199;48.850;8.924;2024-02-23T04:17:26;95391.53;;;3.62;77.19
20079;BME280;10199;48.850;8.924;2024-02-23T04:20:14;95396.50;;;3.50;78.30
20079;BME280;10199;48.850;8.924;2024-02-23T04:23:02;95384.66;;;3.55;77.55
20079;BME280;10199;48.850;8.924;2024-02-23T04:25:51;95397.84;;;3.46;77.39
20079;BME280;10199;48.850;8.924;2024-02-23T04:28:39;95379.84;;;3.58;76.37
20079;BME280;10199;48.850;8.924;2024-02-23T04:31:27;95383.38;;;3.44;76.56
20079;BME280;10199;48.850;8.924;2024-02-23T04:34:17;95372.69;;;3.39;77.60
20079;BME280;10199;48.850;8.924;2024-02-23T04:37:05;95370.78;;;3.54;74.45
20079;BME280;10199;48.850;8.924;2024-02-23T04:39:53;95366.69;;;3.45;76.05
20079;BME280;10199;48.850;8.924;2024-02-23T04:42:43;94939.53;;;0.84;73.74
20079;BME280;10199;48.850;8.924;2024-02-23T04:45:32;95386.84;;;3.51;74.09
20079;BME280;10199;48.850;8.924;2024-02-23T04:48:20;95379.47;;;3.61;72.87
20079;BME280;10199;48.850;8.924;2024-02-23T04:51:10;95386.78;;;3.44;74.16
20079;BME280;10199;48.850;8.924;2024-02-23T04:53:58;95383.38;;;3.44;74.40
20079;BME280;10199;48.850;8.924;2024-02-23T04:56:47;95329.28;;;3.03;75.61
20079;BME280;10199;48.850;8.924;2024-02-23T04:59:35;95346.34;;;2.99;76.69
20079;BME280;10199;48.850;8.924;2024-02-23T05:02:23;95372.22;;;3.29;75.61
20079;BME280;10199;48.850;8.924;2024-02-23T05:05:11;95396.53;;;3.29;75.75
20079;BME280;10199;48.850;8.924;2024-02-23T05:08:02;95382.22;;;3.18;76.15
20079;BME280;10199;48.850;8.924;2024-02-23T05:10:50;95355.78;;;3.00;76.61
20079;BME280;10199;48.850;8.924;2024-02-23T05:13:39;95379.59;;;3.18;76.86
20079;BME280;10199;48.850;8.924;2024-02-23T05:16:28;95369.13;;;3.12;76.42
20079;BME280;10199;48.850;8.924;2024-02-23T05:19:17;95377.34;;;3.09;76.38
20079;BME280;10199;48.850;8.924;2024-02-23T05:22:05;95387.22;;;3.13;76.71
20079;BME280;10199;48.850;8.924;2024-02-23T05:24:56;95378.19;;;3.16;76.53
20079;BME280;10199;48.850;8.924;2024-02-23T05:27:44;95386.59;;;3.11;77.63
20079;BME280;10199;48.850;8.924;2024-02-23T05:30:32;95363.00;;;2.98;76.76
20079;BME280;10199;48.850;8.924;2024-02-23T05:33:21;95389.97;;;3.05;77.39
20079;BME280;10199;48.850;8.924;2024-02-23T05:36:09;95389.78;;;3.07;77.87
20079;BME280;10199;48.850;8.924;2024-02-23T05:38:57;95356.84;;;2.78;77.64
20079;BME280;10199;48.850;8.924;2024-02-23T05:41:47;95360.06;;;2.80;77.61
20079;BME280;10199;48.850;8.924;2024-02-23T05:44:35;95417.94;;;3.11;77.25
20079;BME280;10199;48.850;8.924;2024-02-23T05:47:23;95410.13;;;3.18;76.86
20079;BME280;10199;48.850;8.924;2024-02-23T05:50:12;95406.91;;;3.16;76.77
20079;BME280;10199;48.850;8.924;2024-02-23T05:53:02;95348.59;;;2.74;76.04
20079;BME280;10199;48.850;8.924;2024-02-23T05:55:51;95411.75;;;3.19;76.42
20079;BME280;10199;48.850;8.924;2024-02-23T05:58:41;95407.94;;;3.22;77.41
20079;BME280;10199;48.850;8.924;2024-02-23T06:01:29;95415.03;;;3.28;76.35
20079;BME280;10199;48.850;8.924;2024-02-23T06:04:17;95422.59;;;3.16;76.33
20079;BME280;10199;48.850;8.924;2024-02-23T06:07:05;95440.97;;;3.01;77.35
20079;BME280;10199;48.850;8.924;2024-02-23T06:09:54;95409.28;;;2.83;77.45
20079;BME280;10199;48.850;8.924;2024-02-23T06:12:42;95429.28;;;2.97;77.25
20079;BME280;10199;48.850;8.924;2024-02-23T06:15:32;95430.03;;;2.91;77.64
20079;BME280;10199;48.850;8.924;2024-02-23T06:18:20;95439.06;;;2.88;77.82
20079;BME280;10199;48.850;8.924;2024-02-23T06:21:13;95418.47;;;2.58;78.44
20079;BME280;10199;48.850;8.924;2024-02-23T06:24:01;95393.38;;;2.35;78.68
20079;BME280;10199;48.850;8.924;2024-02-23T06:26:50;95432.22;;;2.66;78.38
20079;BME280;10199;48.850;8.924;2024-02-23T06:29:39;95443.84;;;2.64;78.68
20079;BME280;10199;48.850;8.924;2024-02-23T06:32:29;95443.66;;;2.65;78.79
20079;BME280;10199;48.850;8.924;2024-02-23T06:35:18;95451.41;;;2.59;79.31
20079;BME280;10199;48.850;8.924;2024-02-23T06:38:08;95459.59;;;2.55;79.64
20079;BME280;10199;48.850;8.924;2024-02-23T06:40:56;95434.75;;;2.60;79.47
20079;BME280;10199;48.850;8.924;2024-02-23T06:43:45;95455.34;;;2.69;78.57
20079;BME280;10199;48.850;8.924;2024-02-23T06:46:33;95424.50;;;2.58;78.60
20079;BME280;10199;48.850;8.924;2024-02-23T06:49:22;95463.72;;;2.86;78.34
20079;BME280;10199;48.850;8.924;2024-02-23T06:52:10;95445.22;;;2.81;78.40
20079;BME280;10199;48.850;8.924;2024-02-23T06:54:59;95414.25;;;2.78;78.40
20079;BME280;10199;48.850;8.924;2024-02-23T06:57:47;95439.50;;;2.71;79.54
20079;BME280;10199;48.850;8.924;2024-02-23T07:00:36;95462.59;;;2.95;79.29
20079;BME280;10199;48.850;8.924;2024-02-23T07:03:24;95434.72;;;2.74;79.31
20079;BME280;10199;48.850;8.924;2024-02-23T07:06:13;95465.28;;;3.02;80.25
20079;BME280;10199;48.850;8.924;2024-02-23T07:09:05;95473.25;;;2.94;80.94
20079;BME280;10199;48.850;8.924;2024-02-23T07:11:53;95469.81;;;2.93;81.50
20079;BME280;10199;48.850;8.924;2024-02-23T07:14:41;95479.81;;;3.11;82.66
20079;BME280;10199;48.850;8.924;2024-02-23T07:17:29;95479.84;;;3.17;82.51
20079;BME280;10199;48.850;8.924;2024-02-23T07:20:18;95483.31;;;3.25;82.44
20079;BME280;10199;48.850;8.924;2024-02-23T07:23:07;95474.69;;;3.24;83.21
20079;BME280;10199;48.850;8.924;2024-02-23T07:25:56;95474.25;;;3.20;82.79
20079;BME280;10199;48.850;8.924;2024-02-23T07:28:45;95407.28;;;2.85;82.75
20079;BME280;10199;48.850;8.924;2024-02-23T07:31:33;95504.38;;;3.16;83.11
20079;BME280;10199;48.850;8.924;2024-02-23T07:34:21;95483.75;;;3.28;83.54
20079;BME280;10199;48.850;8.924;2024-02-23T07:37:09;95455.50;;;3.10;83.27
20079;BME280;10199;48.850;8.924;2024-02-23T07:39:59;95440.59;;;3.04;83.56
20079;BME280;10199;48.850;8.924;2024-02-23T07:42:47;95476.59;;;3.37;83.57
20079;BME280;10199;48.850;8.924;2024-02-23T07:45:35;95133.50;;;1.22;83.23
20079;BME280;10199;48.850;8.924;2024-02-23T07:48:24;95386.78;;;3.10;82.70
20079;BME280;10199;48.850;8.924;2024-02-23T07:51:12;95467.94;;;3.64;83.06
20079;BME280;10199;48.850;8.924;2024-02-23T07:54:00;95414.97;;;3.49;81.35
20079;BME280;10199;48.850;8.924;2024-02-23T07:56:50;95471.78;;;4.09;81.58
20079;BME280;10199;48.850;8.924;2024-02-23T07:59:38;95466.72;;;3.60;82.98
20079;BME280;10199;48.850;8.924;2024-02-23T08:02:39;95466.84;;;3.87;81.96
20079;BME280;10199;48.850;8.924;2024-02-23T08:05:28;95466.13;;;4.06;81.65
20079;BME280;10199;48.850;8.924;2024-02-23T08:08:16;95478.41;;;4.05;80.68
20079;BME280;10199;48.850;8.924;2024-02-23T08:11:04;95475.78;;;4.60;80.29
20079;BME280;10199;48.850;8.924;2024-02-23T08:13:54;95451.81;;;4.50;77.45
20079;BME280;10199;48.850;8.924;2024-02-23T08:16:43;95470.34;;;6.00;73.19
20079;BME280;10199;48.850;8.924;2024-02-23T08:19:31;95357.56;;;4.36;75.81
20079;BME280;10199;48.850;8.924;2024-02-23T08:22:19;95462.66;;;6.18;73.38
20079;BME280;10199;48.850;8.924;2024-02-23T08:25:08;95465.56;;;5.64;73.36
20079;BME280;10199;48.850;8.924;2024-02-23T08:27:57;95472.41;;;5.65;72.45
20079;BME280;10199;48.850;8.924;2024-02-23T08:30:47;95470.13;;;6.01;71.01
20079;BME280;10199;48.850;8.924;2024-02-23T08:33:35;95467.53;;;6.53;69.85
20079;BME280;10199;48.850;8.924;2024-02-23T08:36:23;95476.91;;;5.31;72.14
20079;BME280;10199;48.850;8.924;2024-02-23T08:39:12;95458.28;;;5.72;70.51
20079;BME280;10199;48.850;8.924;2024-02-23T08:42:00;95440.75;;;5.66;72.20
20079;BME280;10199;48.850;8.924;2024-02-23T08:44:48;95198.09;;;4.55;70.70
20079;BME280;10199;48.850;8.924;2024-02-23T08:47:37;95429.50;;;5.33;72.08
20079;BME280;10199;48.850;8.924;2024-02-23T08:50:26;95425.28;;;5.32;72.72
20079;BME280;10199;48.850;8.924;2024-02-23T08:53:14;95387.78;;;4.65;73.42
20079;BME280;10199;48.850;8.924;2024-02-23T08:56:02;95428.28;;;5.02;72.66
20079;BME280;10199;48.850;8.924;2024-02-23T08:58:51;95431.63;;;5.82;72.08
20079;BME280;10199;48.850;8.924;2024-02-23T09:01:39;95435.94;;;5.43;69.52
20079;BME280;10199;48.850;8.924;2024-02-23T09:04:29;95408.00;;;5.89;68.86
20079;BME280;10199;48.850;8.924;2024-02-23T09:07:17;95443.19;;;6.32;68.54
20079;BME280;10199;48.850;8.924;2024-02-23T09:10:07;95436.50;;;7.06;66.44
20079;BME280;10199;48.850;8.924;2024-02-23T09:12:55;95453.22;;;7.12;65.44
20079;BME280;10199;48.850;8.924;2024-02-23T09:15:43;95461.91;;;6.81;66.58
20079;BME280;10199;48.850;8.924;2024-02-23T09:18:32;95457.78;;;6.60;66.85
20079;BME280;10199;48.850;8.924;2024-02-23T09:21:24;95478.56;;;7.31;64.16
20079;BME280;10199;48.850;8.924;2024-02-23T09:24:13;95223.75;;;5.55;67.61
20079;BME280;10199;48.850;8.924;2024-02-23T09:27:02;95455.19;;;7.66;66.45
20079;BME280;10199;48.850;8.924;2024-02-23T09:29:50;95459.34;;;7.06;66.52
20079;BME280;10199;48.850;8.924;2024-02-23T09:32:41;95445.94;;;6.82;66.64
20079;BME280;10199;48.850;8.924;2024-02-23T09:35:34;95453.00;;;7.38;68.58
20079;BME280;10199;48.850;8.924;2024-02-23T09:38:24;95498.75;;;6.29;67.72
20079;BME280;10199;48.850;8.924;2024-02-23T09:41:19;95189.66;;;4.53;69.28
20079;BME280;10199;48.850;8.924;2024-02-23T09:44:08;95443.03;;;5.36;69.79
20079;BME280;10199;48.850;8.924;2024-02-23T09:46:56;95437.50;;;5.71;70.39
20079;BME280;10199;48.850;8.924;2024-02-23T09:49:47;95439.78;;;5.41;71.82
20079;BME280;10199;48.850;8.924;2024-02-23T09:52:37;95464.41;;;5.33;72.32
20079;BME280;10199;48.850;8.924;2024-02-23T09:55:28;95465.16;;;5.60;71.90
20079;BME280;10199;48.850;8.924;2024-02-23T09:58:16;95440.56;;;4.75;74.70
20079;BME280;10199;48.850;8.924;2024-02-23T10:01:05;95470.41;;;5.14;75.21
20079;BME280;10199;48.850;8.924;2024-02-23T10:03:54;95237.50;;;3.61;76.33
20079;BME280;10199;48.850;8.924;2024-02-23T10:06:44;95475.25;;;4.84;75.36
20079;BME280;10199;48.850;8.924;2024-02-23T10:09:32;95470.41;;;5.14;74.94
20079;BME280;10199;48.850;8.924;2024-02-23T10:12:21;95473.25;;;5.12;75.45
20079;BME280;10199;48.850;8.924;2024-02-23T10:15:10;95474.47;;;5.23;74.75
20079;BME280;10199;48.850;8.924;2024-02-23T10:17:58;95442.19;;;5.49;73.46
20079;BME280;10199;48.850;8.924;2024-02-23T10:20:47;95475.28;;;5.50;74.47
20079;BME280;10199;48.850;8.924;2024-02-23T10:23:37;95479.91;;;5.35;74.71
20079;BME280;10199;48.850;8.924;2024-02-23T10:26:26;95194.47;;;3.57;74.00
20079;BME280;10199;48.850;8.924;2024-02-23T10:29:16;95490.97;;;4.97;73.98
20079;BME280;10199;48.850;8.924;2024-02-23T10:32:05;95526.41;;;4.80;73.18
20079;BME280;10199;48.850;8.924;2024-02-23T10:34:55;95493.03;;;5.41;73.21
20079;BME280;10199;48.850;8.924;2024-02-23T10:37:48;95482.47;;;6.07;72.76
20079;BME280;10199;48.850;8.924;2024-02-23T10:40:39;95487.72;;;5.81;71.22
20079;BME280;10199;48.850;8.924;2024-02-23T10:43:32;95485.91;;;5.82;71.62
20079;BME280;10199;48.850;8.924;2024-02-23T10:46:23;95489.38;;;5.56;71.73
20079;BME280;10199;48.850;8.924;2024-02-23T10:49:12;95444.66;;;5.24;72.13
20079;BME280;10199;48.850;8.924;2024-02-23T10:52:03;95482.75;;;5.33;71.25
20079;BME280;10199;48.850;8.924;2024-02-23T10:54:53;95485.94;;;5.68;71.01
20079;BME280;10199;48.850;8.924;2024-02-23T10:57:42;95435.09;;;5.69;71.29
20079;BME280;10199;48.850;8.924;2024-02-23T11:00:31;95483.13;;;5.57;69.77
20079;BME280;10199;48.850;8.924;2024-02-23T11:03:20;95477.03;;;5.76;70.89
20079;BME280;10199;48.850;8.924;2024-02-23T11:06:13;95481.25;;;5.84;71.30
20079;BME280;10199;48.850;8.924;2024-02-23T11:09:06;95473.25;;;5.46;70.67
20079;BME280;10199;48.850;8.924;2024-02-23T11:11:57;95453.47;;;5.63;69.65
20079;BME280;10199;48.850;8.924;2024-02-23T11:14:45;95455.03;;;5.77;70.18
20079;BME280;10199;48.850;8.924;2024-02-23T11:17:35;95169.34;;;4.08;69.39
20079;BME280;10199;48.850;8.924;2024-02-23T11:20:34;95159.69;;;4.15;70.09
20079;BME280;10199;48.850;8.924;2024-02-23T11:23:22;95456.59;;;6.18;69.97
20079;BME280;10199;48.850;8.924;2024-02-23T11:26:12;95461.66;;;6.06;68.79
20079;BME280;10199;48.850;8.924;2024-02-23T11:29:10;95430.72;;;6.21;69.52
20079;BME280;10199;48.850;8.924;2024-02-23T11:31:58;95456.94;;;6.28;69.23
20079;BME280;10199;48.850;8.924;2024-02-23T11:34:54;95448.69;;;6.24;70.12
20079;BME280;10199;48.850;8.924;2024-02-23T11:37:47;95379.53;;;5.28;69.25
20079;BME280;10199;48.850;8.924;2024-02-23T11:40:35;95420.00;;;5.58;69.11
20079;BME280;10199;48.850;8.924;2024-02-23T11:43:25;95457.81;;;6.02;68.92
20079;BME280;10199;48.850;8.924;2024-02-23T11:46:14;95459.66;;;5.95;68.58
20079;BME280;10199;48.850;8.924;2024-02-23T11:49:02;95446.91;;;6.12;68.86
20079;BME280;10199;48.850;8.924;2024-02-23T11:51:51;95437.47;;;5.91;68.63
20079;BME280;10199;48.850;8.924;2024-02-23T11:54:40;95452.97;;;6.12;68.66
20079;BME280;10199;48.850;8.924;2024-02-23T11:57:28;95406.53;;;6.06;68.59
20079;BME280;10199;48.850;8.924;2024-02-23T12:00:20;95448.41;;;6.39;67.40
20079;BME280;10199;48.850;8.924;2024-02-23T12:03:08;95378.81;;;6.23;67.80
20079;BME280;10199;48.850;8.924;2024-02-23T12:05:57;95438.19;;;6.62;67.38
20079;BME280;10199;48.850;8.924;2024-02-23T12:08:46;95434.88;;;6.42;67.72
20079;BME280;10199;48.850;8.924;2024-02-23T12:11:35;95425.06;;;6.94;68.42
20079;BME280;10199;48.850;8.924;2024-02-23T12:14:24;95423.47;;;6.86;67.42
20079;BME280;10199;48.850;8.924;2024-02-23T12:17:12;95432.03;;;6.75;67.44
20079;BME280;10199;48.850;8.924;2024-02-23T12:20:01;95425.91;;;6.56;66.11
20079;BME280;10199;48.850;8.924;2024-02-23T12:22:50;95428.47;;;6.63;66.23
20079;BME280;10199;48.850;8.924;2024-02-23T12:25:52;95422.97;;;6.39;65.91
20079;BME280;10199;48.850;8.924;2024-02-23T12:28:42;95421.66;;;6.17;66.46
20079;BME280;10199;48.850;8.924;2024-02-23T12:31:31;95195.66;;;4.60;66.89
20079;BME280;10199;48.850;8.924;2024-02-23T12:34:19;95426.53;;;6.52;67.32
20079;BME280;10199;48.850;8.924;2024-02-23T12:37:08;95425.63;;;6.64;68.16
20079;BME280;10199;48.850;8.924;2024-02-23T12:39:57;95423.72;;;6.47;67.44
20079;BME280;10199;48.850;8.924;2024-02-23T12:42:45;95417.19;;;6.24;67.83
20079;BME280;10199;48.850;8.924;2024-02-23T12:45:37;95422.91;;;6.46;67.93
20079;BME280;10199;48.850;8.924;2024-02-23T12:48:25;95356.81;;;5.66;67.01
20079;BME280;10199;48.850;8.924;2024-02-23T12:51:13;95424.28;;;6.17;67.54
20079;BME280;10199;48.850;8.924;2024-02-23T12:54:01;95423.66;;;6.60;67.58
20079;BME280;10199;48.850;8.924;2024-02-23T12:56:52;95430.63;;;6.72;67.16
20079;BME280;10199;48.850;8.924;2024-02-23T12:59:40;95425.25;;;6.61;67.05
20079;BME280;10199;48.850;8.924;2024-02-23T13:02:30;95358.06;;;6.15;66.84
20079;BME280;10199;48.850;8.924;2024-02-23T13:05:18;95178.53;;;5.28;67.31
20079;BME280;10199;48.850;8.924;2024-02-23T13:08:06;95325.19;;;6.06;66.70
20079;BME280;10199;48.850;8.924;2024-02-23T13:10:54;95421.69;;;6.49;66.62
20079;BME280;10199;48.850;8.924;2024-02-23T13:13:43;95410.00;;;6.45;67.78
20079;BME280;10199;48.850;8.924;2024-02-23T13:16:31;95235.72;;;5.38;67.21
20079;BME280;10199;48.850;8.924;2024-02-23T13:19:21;95434.88;;;6.74;67.13
20079;BME280;10199;48.850;8.924;2024-02-23T13:22:09;95225.09;;;5.20;66.96
20079;BME280;10199;48.850;8.924;2024-02-23T13:24:57;95371.81;;;6.49;67.50
20079;BME280;10199;48.850;8.924;2024-02-23T13:27:45;95463.28;;;6.52;66.59
20079;BME280;10199;48.850;8.924;2024-02-23T13:30:34;95431.09;;;6.31;66.40
20079;BME280;10199;48.850;8.924;2024-02-23T13:33:23;95205.50;;;4.71;67.21
20079;BME280;10199;48.850;8.924;2024-02-23T13:36:14;95431.44;;;6.42;67.49
20079;BME280;10199;48.850;8.924;2024-02-23T13:39:02;95427.88;;;6.29;66.44
20079;BME280;10199;48.850;8.924;2024-02-23T13:41:50;95322.28;;;5.76;66.54
20079;BME280;10199;48.850;8.924;2024-02-23T13:44:41;95391.13;;;6.23;66.65
20079;BME280;10199;48.850;8.924;2024-02-23T13:47:30;94996.19;;;3.80;66.71
20079;BME280;10199;48.850;8.924;2024-02-23T13:50:18;95133.06;;;4.52;67.40
20079;BME280;10199;48.850;8.924;2024-02-23T13:53:08;95373.44;;;6.43;67.57
20079;BME280;10199;48.850;8.924;2024-02-23T13:55:56;95389.88;;;6.63;66.74
20079;BME280;10199;48.850;8.924;2024-02-23T13:58:45;95371.34;;;6.83;66.86
20079;BME280;10199;48.850;8.924;2024-02-23T14:01:33;95354.09;;;6.94;66.90
20079;BME280;10199;48.850;8.924;2024-02-23T14:04:21;95070.47;;;4.88;65.72
20079;BME280;10199;48.850;8.924;2024-02-23T14:07:09;95364.84;;;6.86;66.33
20079;BME280;10199;48.850;8.924;2024-02-23T14:09:59;95360.28;;;6.75;65.72
20079;BME280;10199;48.850;8.924;2024-02-23T14:12:48;95356.97;;;6.86;65.77
20079;BME280;10199;48.850;8.924;2024-02-23T14:15:37;95347.97;;;6.75;65.69
20079;BME280;10199;48.850;8.924;2024-02-23T14:18:25;95344.81;;;7.16;65.86
20079;BME280;10199;48.850;8.924;2024-02-23T14:21:14;95305.88;;;7.25;66.50
20079;BME280;10199;48.850;8.924;2024-02-23T14:24:03;95351.66;;;6.92;65.69
20079;BME280;10199;48.850;8.924;2024-02-23T14:26:53;95336.97;;;6.85;65.98
20079;BME280;10199;48.850;8.924;2024-02-23T14:29:41;95209.22;;;5.91;65.54
20079;BME280;10199;48.850;8.924;2024-02-23T14:32:30;95349.31;;;6.84;66.48
20079;BME280;10199;48.850;8.924;2024-02-23T14:35:18;95326.47;;;7.10;67.17
20079;BME280;10199;48.850;8.924;2024-02-23T14:38:07;95118.75;;;5.43;66.36
20079;BME280;10199;48.850;8.924;2024-02-23T14:40:55;95351.56;;;7.06;65.10
20079;BME280;10199;48.850;8.924;2024-02-23T14:43:45;95358.66;;;7.05;64.92
20079;BME280;10199;48.850;8.924;2024-02-23T14:46:33;95342.00;;;6.86;65.34
20079;BME280;10199;48.850;8.924;2024-02-23T14:49:22;95333.25;;;6.92;66.22
20079;BME280;10199;48.850;8.924;2024-02-23T14:52:10;95369.66;;;6.95;66.40
20079;BME280;10199;48.850;8.924;2024-02-23T14:54:59;95334.34;;;6.60;66.19
20079;BME280;10199;48.850;8.924;2024-02-23T14:57:47;95358.03;;;6.78;65.31
20079;BME280;10199;48.850;8.924;2024-02-23T15:00:36;95243.66;;;6.07;65.99
20079;BME280;10199;48.850;8.924;2024-02-23T15:03:25;95311.81;;;6.46;66.04
20079;BME280;10199;48.850;8.924;2024-02-23T15:06:13;95156.78;;;5.21;66.40